createdAt,value
2023-03-29T00:03:02.560Z,55.12
2023-03-29T00:08:07.562Z,54.75
2023-03-29T00:13:11.060Z,54.93
2023-03-29T00:18:14.633Z,55.15
2023-03-29T00:23:19.566Z,55.92
2023-03-29T00:28:23.496Z,56.01
2023-03-29T00:33:26.919Z,55.17
2023-03-29T00:38:32.742Z,55.85
2023-03-29T00:43:58.247Z,53.53
2023-03-29T00:49:07.260Z,55.69
2023-03-29T00:54:18.653Z,55.75
2023-03-29T00:59:25.807Z,56.10
2023-03-29T01:04:34.110Z,55.65
2023-03-29T01:09:43.049Z,56.28
2023-03-29T01:14:51.387Z,55.67
2023-03-29T01:20:00.716Z,55.75
2023-03-29T01:25:14.367Z,55.66
2023-03-29T01:30:24.976Z,56.07
2023-03-29T01:35:34.213Z,56.12
2023-03-29T01:40:38.164Z,57.15
2023-03-29T01:45:48.893Z,56.57
2023-03-29T01:50:54.812Z,57.83
2023-03-29T01:56:04.565Z,57.76
2023-03-29T02:01:11.380Z,57.18
2023-03-29T02:06:20.574Z,57.56
2023-03-29T02:11:25.964Z,58.00
2023-03-29T02:16:36.981Z,58.03
2023-03-29T02:21:48.803Z,57.32
2023-03-29T02:26:52.664Z,58.32
2023-03-29T02:32:00.776Z,58.02
2023-03-29T02:37:08.033Z,58.17
2023-03-29T02:42:12.305Z,58.41
2023-03-29T02:47:23.330Z,58.20
2023-03-29T02:52:35.057Z,57.98
2023-03-29T02:57:40.881Z,58.20
2023-03-29T03:02:46.590Z,58.55
2023-03-29T03:07:50.146Z,58.12
2023-03-29T03:12:53.882Z,58.28
2023-03-29T03:17:58.846Z,57.81
2023-03-29T03:23:03.615Z,58.27
2023-03-29T03:28:07.674Z,58.41
2023-03-29T03:33:12.915Z,58.80
2023-03-29T03:38:35.343Z,58.75
2023-03-29T03:43:42.468Z,59.17
2023-03-29T03:48:48.026Z,58.96
2023-03-29T03:53:58.932Z,58.23
2023-03-29T03:59:28.725Z,58.15
2023-03-29T04:04:40.600Z,56.51
2023-03-29T04:09:48.928Z,56.88
2023-03-29T04:15:03.614Z,56.03
2023-03-29T04:20:12.342Z,56.07
2023-03-29T04:25:17.674Z,55.60
2023-03-29T04:30:24.312Z,55.25
2023-03-29T04:35:50.471Z,55.36
2023-03-29T04:40:56.017Z,55.11
2023-03-29T04:46:19.166Z,56.04
2023-03-29T04:51:50.520Z,56.65
2023-03-29T04:56:57.760Z,56.94
2023-03-29T05:02:13.604Z,56.27
2023-03-29T05:07:22.016Z,57.22
2023-03-29T05:12:26.974Z,58.07
2023-03-29T05:17:33.749Z,57.28
2023-03-29T05:22:44.977Z,59.03
2023-03-29T05:27:57.503Z,57.12
2023-03-29T05:33:05.558Z,57.61
2023-03-29T05:38:11.826Z,57.47
2023-03-29T05:43:15.594Z,57.45
2023-03-29T05:48:19.143Z,57.75
2023-03-29T05:53:26.287Z,57.10
2023-03-29T05:58:30.925Z,56.82
2023-03-29T06:03:35.350Z,57.30
2023-03-29T06:08:40.761Z,57.16
2023-03-29T06:14:02.238Z,56.46
2023-03-29T06:19:06.835Z,56.05
2023-03-29T06:24:14.603Z,58.51
2023-03-29T06:29:23.684Z,58.95
2023-03-29T06:34:28.204Z,58.30
2023-03-29T06:39:53.895Z,57.41
2023-03-29T06:45:13.128Z,56.21
2023-03-29T06:50:17.460Z,57.09
2023-03-29T06:55:42.617Z,58.63
2023-03-29T07:01:15.483Z,54.76
2023-03-29T07:06:26.401Z,53.53
2023-03-29T07:11:34.008Z,55.12
2023-03-29T07:16:48.853Z,56.65
2023-03-29T07:22:13.607Z,55.58
2023-03-29T07:27:27.529Z,57.84
2023-03-29T07:32:32.897Z,55.67
2023-03-29T07:37:47.952Z,56.14
2023-03-29T07:42:54.819Z,56.75
2023-03-29T07:48:00.663Z,55.40
2023-03-29T07:53:14.079Z,55.41
2023-03-29T07:58:19.201Z,55.74
2023-03-29T08:03:22.922Z,55.08
2023-03-29T08:08:26.577Z,54.71
2023-03-29T08:13:35.156Z,55.31
2023-03-29T08:19:12.822Z,53.15
2023-03-29T08:24:29.603Z,52.87
2023-03-29T08:29:41.542Z,53.09
2023-03-29T08:34:46.954Z,53.38
2023-03-29T08:40:18.840Z,53.33
2023-03-29T08:45:49.631Z,53.44
2023-03-29T08:51:00.656Z,52.29
2023-03-29T08:56:11.010Z,54.74
2023-03-29T09:01:46.189Z,54.61
2023-03-29T09:06:54.070Z,52.60
2023-03-29T09:12:36.712Z,53.76
2023-03-29T09:17:53.007Z,51.27
2023-03-29T09:23:40.103Z,51.78
2023-03-29T09:29:08.974Z,52.40
2023-03-29T09:34:22.200Z,50.51
2023-03-29T09:39:52.798Z,50.85
2023-03-29T09:45:08.288Z,51.75
2023-03-29T09:50:30.913Z,50.44
2023-03-29T09:55:40.887Z,49.62
2023-03-29T10:01:08.958Z,49.10
2023-03-29T10:06:13.918Z,48.78
2023-03-29T10:11:29.898Z,48.68
2023-03-29T10:16:38.230Z,46.38
2023-03-29T10:21:42.213Z,47.37
2023-03-29T10:26:53.490Z,47.10
2023-03-29T10:31:57.220Z,45.63
2023-03-29T10:37:03.384Z,43.88
2023-03-29T10:42:14.477Z,47.48
2023-03-29T10:47:20.431Z,45.76
2023-03-29T10:52:24.077Z,46.63
2023-03-29T10:57:38.756Z,44.07
2023-03-29T11:03:07.230Z,45.33
2023-03-29T11:08:29.096Z,43.97
2023-03-29T11:13:47.670Z,45.11
2023-03-29T11:19:20.561Z,43.43
2023-03-29T11:24:37.143Z,43.58
2023-03-29T11:29:50.086Z,43.87
2023-03-29T11:35:04.876Z,42.54
2023-03-29T11:40:24.184Z,41.25
2023-03-29T11:45:34.262Z,40.66
2023-03-29T11:50:47.569Z,40.86
2023-03-29T11:55:52.270Z,40.20
2023-03-29T12:01:02.394Z,40.26
2023-03-29T12:06:08.956Z,44.93
2023-03-29T12:11:20.599Z,39.22
2023-03-29T12:16:32.415Z,39.62
2023-03-29T12:21:37.925Z,37.72
2023-03-29T12:27:08.326Z,38.31
2023-03-29T12:32:44.638Z,42.23
2023-03-29T12:38:20.913Z,39.71
2023-03-29T12:43:43.596Z,38.50
2023-03-29T12:49:13.001Z,39.67
2023-03-29T12:54:18.962Z,38.29
2023-03-29T12:59:27.319Z,39.30
2023-03-29T13:04:49.558Z,40.45
2023-03-29T13:09:54.953Z,37.82
2023-03-29T13:15:01.492Z,40.49
2023-03-29T13:20:22.918Z,41.34
2023-03-29T13:25:52.212Z,42.02
2023-03-29T13:31:02.505Z,41.50
2023-03-29T13:36:09.741Z,42.02
2023-03-29T13:41:28.825Z,41.18
2023-03-29T13:46:41.973Z,41.12
2023-03-29T13:52:07.134Z,41.12
2023-03-29T13:57:14.923Z,41.64
2023-03-29T14:02:27.286Z,41.52
2023-03-29T14:07:34.883Z,44.21
2023-03-29T14:12:42.137Z,45.39
2023-03-29T14:17:46.127Z,43.99
2023-03-29T14:22:51.190Z,45.48
2023-03-29T14:27:54.688Z,47.38
2023-03-29T14:32:58.374Z,46.72
2023-03-29T14:38:05.403Z,47.46
2023-03-29T14:43:34.043Z,49.99
2023-03-29T14:48:38.528Z,49.67
2023-03-29T14:53:43.893Z,49.14
2023-03-29T14:58:47.987Z,47.53
2023-03-29T15:03:56.460Z,48.24
2023-03-29T15:09:05.806Z,47.15
2023-03-29T15:14:17.163Z,46.83
2023-03-29T15:19:23.249Z,45.29
2023-03-29T15:24:32.232Z,44.12
2023-03-29T15:29:40.257Z,45.01
2023-03-29T15:34:43.772Z,45.53
2023-03-29T15:39:48.717Z,45.39
2023-03-29T15:44:56.267Z,45.79
2023-03-29T15:49:59.826Z,44.47
2023-03-29T15:55:04.870Z,45.24
2023-03-29T16:00:14.895Z,45.64
2023-03-29T16:05:18.729Z,44.84
2023-03-29T16:10:23.587Z,44.91
2023-03-29T16:15:27.908Z,45.36
2023-03-29T16:20:31.502Z,46.00
2023-03-29T16:25:38.529Z,46.45
2023-03-29T16:30:42.172Z,46.84
2023-03-29T16:35:45.966Z,46.15
2023-03-29T16:40:51.310Z,46.43
2023-03-29T16:45:54.778Z,46.79
2023-03-29T16:50:58.288Z,47.35
2023-03-29T16:56:04.291Z,47.37
2023-03-29T17:01:10.883Z,46.34
2023-03-29T17:06:14.839Z,48.04
2023-03-29T17:11:23.193Z,48.02
2023-03-29T17:16:29.007Z,48.38
2023-03-29T17:21:32.979Z,50.58
2023-03-29T17:26:38.663Z,49.98
2023-03-29T17:31:47.540Z,50.62
2023-03-29T17:36:53.261Z,49.69
2023-03-29T17:41:58.338Z,49.68
2023-03-29T17:47:06.662Z,50.58
2023-03-29T17:52:10.170Z,50.70
2023-03-29T17:57:15.266Z,50.98
2023-03-29T18:02:20.645Z,50.78
2023-03-29T18:07:24.351Z,50.13
2023-03-29T18:12:30.017Z,50.34
2023-03-29T18:17:35.620Z,50.67
2023-03-29T18:22:39.259Z,50.53
2023-03-29T18:27:44.040Z,50.36
2023-03-29T18:32:47.608Z,50.29
2023-03-29T18:37:52.278Z,50.68
2023-03-29T18:42:57.223Z,50.42
2023-03-29T18:48:00.794Z,50.39
2023-03-29T18:53:04.911Z,50.68
2023-03-29T18:58:10.552Z,50.91
2023-03-29T19:03:14.356Z,50.67
2023-03-29T19:08:17.873Z,51.01
2023-03-29T19:13:22.731Z,51.13
2023-03-29T19:18:26.510Z,50.57
2023-03-29T19:23:30.488Z,50.21
2023-03-29T19:28:35.984Z,49.70
2023-03-29T19:33:40.839Z,49.32
2023-03-29T19:38:44.825Z,48.58
2023-03-29T19:43:49.612Z,48.37
2023-03-29T19:48:55.554Z,48.80
2023-03-29T19:53:59.405Z,48.24
2023-03-29T19:59:04.289Z,48.48
2023-03-29T20:04:07.959Z,47.91
2023-03-29T20:09:11.831Z,48.36
2023-03-29T20:14:16.703Z,48.64
2023-03-29T20:19:23.949Z,49.22
2023-03-29T20:24:27.501Z,49.60
2023-03-29T20:29:33.141Z,49.67
2023-03-29T20:34:36.937Z,49.71
2023-03-29T20:39:40.733Z,49.92
2023-03-29T20:44:50.421Z,49.74
2023-03-29T20:49:54.609Z,49.87
2023-03-29T20:54:59.104Z,49.84
2023-03-29T21:00:11.790Z,49.39
2023-03-29T21:05:15.927Z,49.61
2023-03-29T21:10:19.595Z,49.67
2023-03-29T21:15:24.369Z,48.80
2023-03-29T21:20:28.564Z,48.70
2023-03-29T21:25:32.126Z,48.41
2023-03-29T21:30:37.270Z,48.16
2023-03-29T21:35:40.980Z,48.61
2023-03-29T21:40:44.431Z,47.54
2023-03-29T21:45:51.013Z,46.92
2023-03-29T21:50:54.564Z,46.70
2023-03-29T21:55:57.960Z,46.14
2023-03-29T22:01:03.787Z,45.54
2023-03-29T22:06:09.740Z,45.88
2023-03-29T22:11:15.509Z,45.55
2023-03-29T22:16:20.557Z,45.63
2023-03-29T22:21:26.674Z,45.59
2023-03-29T22:26:32.318Z,45.82
2023-03-29T22:31:37.835Z,45.43
2023-03-29T22:36:41.436Z,45.70
2023-03-29T22:41:45.030Z,45.84
2023-03-29T22:46:49.879Z,45.69
2023-03-29T22:51:53.689Z,45.28
2023-03-29T22:56:57.566Z,45.79
2023-03-29T23:02:02.384Z,45.68
2023-03-29T23:07:11.715Z,45.86
2023-03-29T23:12:15.472Z,45.58
2023-03-29T23:17:22.924Z,46.15
2023-03-29T23:22:26.602Z,46.36
2023-03-29T23:27:29.986Z,46.76
2023-03-29T23:32:34.864Z,46.60
2023-03-29T23:37:39.442Z,47.17
2023-03-29T23:42:44.632Z,47.48
2023-03-29T23:47:49.441Z,46.68
2023-03-29T23:52:52.952Z,47.29
2023-03-29T23:57:56.542Z,47.39
